sensor_id;sensor_type;location;lat;lon;timestamp;temperature;humidity
23597;DHT22;40226;50.874;4.394;2023-12-14T00:01:14;10.40;99.90
23597;DHT22;40226;50.874;4.394;2023-12-14T00:03:40;10.40;99.90
23597;DHT22;40226;50.874;4.394;2023-12-14T00:06:12;10.50;99.90
23597;DHT22;40226;50.874;4.394;2023-12-14T00:08:38;10.50;99.90
23597;DHT22;40226;50.874;4.394;2023-12-14T00:11:06;10.60;99.90
23597;DHT22;40226;50.874;4.394;2023-12-14T00:13:32;10.60;99.90
23597;DHT22;40226;50.874;4.394;2023-12-14T00:15:58;10.70;99.90
23597;DHT22;40226;50.874;4.394;2023-12-14T00:18:23;10.50;99.90
23597;DHT22;40226;50.874;4.394;2023-12-14T00:20:49;10.60;99.90
23597;DHT22;40226;50.874;4.394;2023-12-14T00:23:15;10.70;99.90
23597;DHT22;40226;50.874;4.394;2023-12-14T00:25:40;10.50;99.90
23597;DHT22;40226;50.874;4.394;2023-12-14T00:28:06;10.60;99.90
23597;DHT22;40226;50.874;4.394;2023-12-14T00:30:32;10.50;99.90
23597;DHT22;40226;50.874;4.394;2023-12-14T00:32:57;10.40;99.90
23597;DHT22;40226;50.874;4.394;2023-12-14T00:35:23;10.40;99.90
23597;DHT22;40226;50.874;4.394;2023-12-14T00:37:48;10.40;99.90
23597;DHT22;40226;50.874;4.394;2023-12-14T00:40:14;10.40;99.90
23597;DHT22;40226;50.874;4.394;2023-12-14T00:42:40;10.50;99.90
23597;DHT22;40226;50.874;4.394;2023-12-14T00:45:06;10.60;99.90
23597;DHT22;40226;50.874;4.394;2023-12-14T00:47:32;10.70;99.90
23597;DHT22;40226;50.874;4.394;2023-12-14T00:49:57;10.70;99.90
23597;DHT22;40226;50.874;4.394;2023-12-14T00:52:23;10.50;99.90
23597;DHT22;40226;50.874;4.394;2023-12-14T00:54:49;10.50;99.90
23597;DHT22;40226;50.874;4.394;2023-12-14T00:57:14;10.60;99.90
23597;DHT22;40226;50.874;4.394;2023-12-14T00:59:40;10.60;99.90
23597;DHT22;40226;50.874;4.394;2023-12-14T01:02:06;10.50;99.90
23597;DHT22;40226;50.874;4.394;2023-12-14T01:04:32;10.60;99.90
23597;DHT22;40226;50.874;4.394;2023-12-14T01:06:57;10.50;99.90
23597;DHT22;40226;50.874;4.394;2023-12-14T01:09:23;10.30;99.90
23597;DHT22;40226;50.874;4.394;2023-12-14T01:11:49;10.50;99.90
23597;DHT22;40226;50.874;4.394;2023-12-14T01:14:14;10.30;99.90
23597;DHT22;40226;50.874;4.394;2023-12-14T01:16:40;10.30;99.90
23597;DHT22;40226;50.874;4.394;2023-12-14T01:19:06;10.40;99.90
23597;DHT22;40226;50.874;4.394;2023-12-14T01:21:32;10.50;99.90
23597;DHT22;40226;50.874;4.394;2023-12-14T01:23:58;10.50;99.90
23597;DHT22;40226;50.874;4.394;2023-12-14T01:26:23;10.60;99.90
23597;DHT22;40226;50.874;4.394;2023-12-14T01:28:49;10.70;99.90
23597;DHT22;40226;50.874;4.394;2023-12-14T01:31:15;10.80;99.90
23597;DHT22;40226;50.874;4.394;2023-12-14T01:33:40;10.70;99.90
23597;DHT22;40226;50.874;4.394;2023-12-14T01:36:06;10.70;99.90
23597;DHT22;40226;50.874;4.394;2023-12-14T01:38:32;10.80;99.90
23597;DHT22;40226;50.874;4.394;2023-12-14T01:40:57;10.70;99.90
23597;DHT22;40226;50.874;4.394;2023-12-14T01:43:24;10.60;99.90
23597;DHT22;40226;50.874;4.394;2023-12-14T01:45:50;10.50;99.90
23597;DHT22;40226;50.874;4.394;2023-12-14T01:48:16;10.50;99.90
23597;DHT22;40226;50.874;4.394;2023-12-14T01:50:41;10.40;99.90
23597;DHT22;40226;50.874;4.394;2023-12-14T01:53:07;10.30;99.90
23597;DHT22;40226;50.874;4.394;2023-12-14T01:55:32;10.30;99.90
23597;DHT22;40226;50.874;4.394;2023-12-14T01:57:59;10.40;99.90
23597;DHT22;40226;50.874;4.394;2023-12-14T02:00:36;10.20;99.90
23597;DHT22;40226;50.874;4.394;2023-12-14T02:03:02;10.20;99.90
23597;DHT22;40226;50.874;4.394;2023-12-14T02:05:28;10.30;99.90
23597;DHT22;40226;50.874;4.394;2023-12-14T02:07:53;10.40;99.90
23597;DHT22;40226;50.874;4.394;2023-12-14T02:10:19;10.00;99.90
23597;DHT22;40226;50.874;4.394;2023-12-14T02:12:44;10.00;99.90
23597;DHT22;40226;50.874;4.394;2023-12-14T02:15:10;10.00;99.90
23597;DHT22;40226;50.874;4.394;2023-12-14T02:17:36;9.80;99.90
23597;DHT22;40226;50.874;4.394;2023-12-14T02:20:01;9.70;99.90
23597;DHT22;40226;50.874;4.394;2023-12-14T02:22:27;9.60;99.90
23597;DHT22;40226;50.874;4.394;2023-12-14T02:24:52;9.50;99.90
23597;DHT22;40226;50.874;4.394;2023-12-14T02:27:18;9.60;99.90
23597;DHT22;40226;50.874;4.394;2023-12-14T02:29:43;9.60;99.90
23597;DHT22;40226;50.874;4.394;2023-12-14T02:32:09;9.60;99.90
23597;DHT22;40226;50.874;4.394;2023-12-14T02:34:35;9.60;99.90
23597;DHT22;40226;50.874;4.394;2023-12-14T02:37:00;9.70;99.90
23597;DHT22;40226;50.874;4.394;2023-12-14T02:39:26;9.50;99.90
23597;DHT22;40226;50.874;4.394;2023-12-14T02:41:51;9.50;99.90
23597;DHT22;40226;50.874;4.394;2023-12-14T02:44:17;9.50;99.90
23597;DHT22;40226;50.874;4.394;2023-12-14T02:46:43;9.30;99.90
23597;DHT22;40226;50.874;4.394;2023-12-14T02:49:08;9.20;99.90
23597;DHT22;40226;50.874;4.394;2023-12-14T02:51:34;9.30;99.90
23597;DHT22;40226;50.874;4.394;2023-12-14T02:53:59;9.30;99.90
23597;DHT22;40226;50.874;4.394;2023-12-14T02:56:25;9.10;99.90
23597;DHT22;40226;50.874;4.394;2023-12-14T02:58:51;9.20;99.90
23597;DHT22;40226;50.874;4.394;2023-12-14T03:01:19;9.30;99.90
23597;DHT22;40226;50.874;4.394;2023-12-14T03:03:46;9.10;99.90
23597;DHT22;40226;50.874;4.394;2023-12-14T03:06:12;9.10;99.90
23597;DHT22;40226;50.874;4.394;2023-12-14T03:08:38;9.20;99.90
23597;DHT22;40226;50.874;4.394;2023-12-14T03:11:03;9.20;99.90
23597;DHT22;40226;50.874;4.394;2023-12-14T03:13:29;9.10;99.90
23597;DHT22;40226;50.874;4.394;2023-12-14T03:15:55;9.20;99.90
23597;DHT22;40226;50.874;4.394;2023-12-14T03:18:20;9.20;99.90
23597;DHT22;40226;50.874;4.394;2023-12-14T03:20:46;9.30;99.90
23597;DHT22;40226;50.874;4.394;2023-12-14T03:23:12;9.30;99.90
23597;DHT22;40226;50.874;4.394;2023-12-14T03:25:37;9.10;99.90
23597;DHT22;40226;50.874;4.394;2023-12-14T03:28:03;9.40;99.90
23597;DHT22;40226;50.874;4.394;2023-12-14T03:30:28;9.60;99.90
23597;DHT22;40226;50.874;4.394;2023-12-14T03:32:54;9.50;99.90
23597;DHT22;40226;50.874;4.394;2023-12-14T03:35:21;9.40;99.90
23597;DHT22;40226;50.874;4.394;2023-12-14T03:37:47;9.30;99.90
23597;DHT22;40226;50.874;4.394;2023-12-14T03:40:13;9.20;99.90
23597;DHT22;40226;50.874;4.394;2023-12-14T03:42:38;9.30;99.90
23597;DHT22;40226;50.874;4.394;2023-12-14T03:45:04;9.20;99.90
23597;DHT22;40226;50.874;4.394;2023-12-14T03:47:30;9.20;99.90
23597;DHT22;40226;50.874;4.394;2023-12-14T03:49:56;9.20;99.90
23597;DHT22;40226;50.874;4.394;2023-12-14T03:52:21;8.90;99.90
23597;DHT22;40226;50.874;4.394;2023-12-14T03:54:47;9.00;99.90
23597;DHT22;40226;50.874;4.394;2023-12-14T03:57:13;9.10;99.90
23597;DHT22;40226;50.874;4.394;2023-12-14T03:59:39;9.00;99.90
23597;DHT22;40226;50.874;4.394;2023-12-14T04:02:05;8.70;99.90
23597;DHT22;40226;50.874;4.394;2023-12-14T04:04:31;8.70;99.90
23597;DHT22;40226;50.874;4.394;2023-12-14T04:06:57;8.80;99.90
23597;DHT22;40226;50.874;4.394;2023-12-14T04:09:22;9.00;99.90
23597;DHT22;40226;50.874;4.394;2023-12-14T04:11:49;9.10;99.90
23597;DHT22;40226;50.874;4.394;2023-12-14T04:14:14;9.20;99.90
23597;DHT22;40226;50.874;4.394;2023-12-14T04:16:40;8.90;99.90
23597;DHT22;40226;50.874;4.394;2023-12-14T04:19:05;8.80;99.90
23597;DHT22;40226;50.874;4.394;2023-12-14T04:21:36;8.80;99.90
23597;DHT22;40226;50.874;4.394;2023-12-14T04:24:01;8.70;99.90
23597;DHT22;40226;50.874;4.394;2023-12-14T04:26:27;8.70;99.90
23597;DHT22;40226;50.874;4.394;2023-12-14T04:28:53;8.70;99.90
23597;DHT22;40226;50.874;4.394;2023-12-14T04:31:19;8.70;99.90
23597;DHT22;40226;50.874;4.394;2023-12-14T04:33:44;8.60;99.90
23597;DHT22;40226;50.874;4.394;2023-12-14T04:36:10;8.60;99.90
23597;DHT22;40226;50.874;4.394;2023-12-14T04:38:35;8.60;99.90
23597;DHT22;40226;50.874;4.394;2023-12-14T04:41:01;8.50;99.90
23597;DHT22;40226;50.874;4.394;2023-12-14T04:43:27;8.50;99.90
23597;DHT22;40226;50.874;4.394;2023-12-14T04:45:55;8.70;99.90
23597;DHT22;40226;50.874;4.394;2023-12-14T04:48:20;8.70;99.90
23597;DHT22;40226;50.874;4.394;2023-12-14T04:50:46;8.70;99.90
23597;DHT22;40226;50.874;4.394;2023-12-14T04:53:12;8.60;99.90
23597;DHT22;40226;50.874;4.394;2023-12-14T04:55:37;8.60;99.90
23597;DHT22;40226;50.874;4.394;2023-12-14T04:58:03;8.60;99.90
23597;DHT22;40226;50.874;4.394;2023-12-14T05:00:29;8.70;99.90
23597;DHT22;40226;50.874;4.394;2023-12-14T05:02:54;8.60;99.90
23597;DHT22;40226;50.874;4.394;2023-12-14T05:05:20;8.50;99.90
23597;DHT22;40226;50.874;4.394;2023-12-14T05:07:45;8.60;99.90
23597;DHT22;40226;50.874;4.394;2023-12-14T05:10:11;8.50;99.90
23597;DHT22;40226;50.874;4.394;2023-12-14T05:12:37;8.50;99.90
23597;DHT22;40226;50.874;4.394;2023-12-14T05:15:06;8.50;99.90
23597;DHT22;40226;50.874;4.394;2023-12-14T05:17:32;8.60;99.90
23597;DHT22;40226;50.874;4.394;2023-12-14T05:19:58;8.60;99.90
23597;DHT22;40226;50.874;4.394;2023-12-14T05:22:24;8.60;99.90
23597;DHT22;40226;50.874;4.394;2023-12-14T05:24:50;8.70;99.90
23597;DHT22;40226;50.874;4.394;2023-12-14T05:27:15;8.70;99.90
23597;DHT22;40226;50.874;4.394;2023-12-14T05:29:41;8.60;99.90
23597;DHT22;40226;50.874;4.394;2023-12-14T05:32:06;8.60;99.90
23597;DHT22;40226;50.874;4.394;2023-12-14T05:34:32;8.40;99.90
23597;DHT22;40226;50.874;4.394;2023-12-14T05:36:58;8.50;99.90
23597;DHT22;40226;50.874;4.394;2023-12-14T05:39:23;8.60;99.90
23597;DHT22;40226;50.874;4.394;2023-12-14T05:41:49;8.40;99.90
23597;DHT22;40226;50.874;4.394;2023-12-14T05:44:15;8.60;99.90
23597;DHT22;40226;50.874;4.394;2023-12-14T05:46:40;8.50;99.90
23597;DHT22;40226;50.874;4.394;2023-12-14T05:49:06;8.40;99.90
23597;DHT22;40226;50.874;4.394;2023-12-14T05:51:33;8.30;99.90
23597;DHT22;40226;50.874;4.394;2023-12-14T05:53:59;8.40;99.90
23597;DHT22;40226;50.874;4.394;2023-12-14T05:56:28;8.60;99.90
23597;DHT22;40226;50.874;4.394;2023-12-14T05:58:53;8.60;99.90
23597;DHT22;40226;50.874;4.394;2023-12-14T06:01:19;8.60;99.90
23597;DHT22;40226;50.874;4.394;2023-12-14T06:03:45;8.60;99.90
23597;DHT22;40226;50.874;4.394;2023-12-14T06:06:12;8.60;99.90
23597;DHT22;40226;50.874;4.394;2023-12-14T06:08:39;8.60;99.90
23597;DHT22;40226;50.874;4.394;2023-12-14T06:11:04;8.60;99.90
23597;DHT22;40226;50.874;4.394;2023-12-14T06:13:32;8.50;99.90
23597;DHT22;40226;50.874;4.394;2023-12-14T06:15:57;8.60;99.90
23597;DHT22;40226;50.874;4.394;2023-12-14T06:18:23;8.60;99.90
23597;DHT22;40226;50.874;4.394;2023-12-14T06:20:48;8.60;99.90
23597;DHT22;40226;50.874;4.394;2023-12-14T06:23:14;8.60;99.90
23597;DHT22;40226;50.874;4.394;2023-12-14T06:25:40;8.50;99.90
23597;DHT22;40226;50.874;4.394;2023-12-14T06:28:05;8.60;99.90
23597;DHT22;40226;50.874;4.394;2023-12-14T06:30:31;8.60;99.90
23597;DHT22;40226;50.874;4.394;2023-12-14T06:32:56;8.50;99.90
23597;DHT22;40226;50.874;4.394;2023-12-14T06:35:22;8.60;99.90
23597;DHT22;40226;50.874;4.394;2023-12-14T06:37:48;8.60;99.90
23597;DHT22;40226;50.874;4.394;2023-12-14T06:40:13;8.50;99.90
23597;DHT22;40226;50.874;4.394;2023-12-14T06:42:39;8.60;99.90
23597;DHT22;40226;50.874;4.394;2023-12-14T06:45:05;8.50;99.90
23597;DHT22;40226;50.874;4.394;2023-12-14T06:47:31;8.60;99.90
23597;DHT22;40226;50.874;4.394;2023-12-14T06:49:57;8.60;99.90
23597;DHT22;40226;50.874;4.394;2023-12-14T06:52:23;8.60;99.90
23597;DHT22;40226;50.874;4.394;2023-12-14T06:54:48;8.70;99.90
23597;DHT22;40226;50.874;4.394;2023-12-14T06:57:14;8.60;99.90
23597;DHT22;40226;50.874;4.394;2023-12-14T06:59:40;8.70;99.90
23597;DHT22;40226;50.874;4.394;2023-12-14T07:02:06;8.60;99.90
23597;DHT22;40226;50.874;4.394;2023-12-14T07:04:32;8.50;99.90
23597;DHT22;40226;50.874;4.394;2023-12-14T07:06:58;8.50;99.90
23597;DHT22;40226;50.874;4.394;2023-12-14T07:09:24;8.40;99.90
23597;DHT22;40226;50.874;4.394;2023-12-14T07:11:50;8.40;99.90
23597;DHT22;40226;50.874;4.394;2023-12-14T07:14:15;8.30;99.90
23597;DHT22;40226;50.874;4.394;2023-12-14T07:16:41;8.30;99.90
23597;DHT22;40226;50.874;4.394;2023-12-14T07:19:07;8.20;99.90
23597;DHT22;40226;50.874;4.394;2023-12-14T07:21:33;8.20;99.90
23597;DHT22;40226;50.874;4.394;2023-12-14T07:23:58;8.10;99.90
23597;DHT22;40226;50.874;4.394;2023-12-14T07:26:24;7.90;99.90
23597;DHT22;40226;50.874;4.394;2023-12-14T07:28:52;7.90;99.90
23597;DHT22;40226;50.874;4.394;2023-12-14T07:31:18;7.90;99.90
23597;DHT22;40226;50.874;4.394;2023-12-14T07:33:43;7.80;99.90
23597;DHT22;40226;50.874;4.394;2023-12-14T07:36:10;7.80;99.90
23597;DHT22;40226;50.874;4.394;2023-12-14T07:38:36;7.70;99.90
23597;DHT22;40226;50.874;4.394;2023-12-14T07:41:02;8.00;99.90
23597;DHT22;40226;50.874;4.394;2023-12-14T07:43:28;8.00;99.90
23597;DHT22;40226;50.874;4.394;2023-12-14T07:45:54;8.20;99.90
23597;DHT22;40226;50.874;4.394;2023-12-14T07:48:20;8.30;99.90
23597;DHT22;40226;50.874;4.394;2023-12-14T07:50:45;8.50;99.90
23597;DHT22;40226;50.874;4.394;2023-12-14T07:53:11;8.50;99.90
23597;DHT22;40226;50.874;4.394;2023-12-14T07:55:37;8.60;99.90
23597;DHT22;40226;50.874;4.394;2023-12-14T07:58:03;8.60;99.90
23597;DHT22;40226;50.874;4.394;2023-12-14T08:00:28;8.60;99.90
23597;DHT22;40226;50.874;4.394;2023-12-14T08:02:54;8.60;99.90
23597;DHT22;40226;50.874;4.394;2023-12-14T08:05:20;8.70;99.90
23597;DHT22;40226;50.874;4.394;2023-12-14T08:07:45;8.60;99.90
23597;DHT22;40226;50.874;4.394;2023-12-14T08:10:11;8.50;99.90
23597;DHT22;40226;50.874;4.394;2023-12-14T08:12:36;8.50;99.90
23597;DHT22;40226;50.874;4.394;2023-12-14T08:15:02;8.40;99.90
23597;DHT22;40226;50.874;4.394;2023-12-14T08:17:28;8.40;99.90
23597;DHT22;40226;50.874;4.394;2023-12-14T08:19:54;8.50;99.90
23597;DHT22;40226;50.874;4.394;2023-12-14T08:22:20;8.60;99.90
23597;DHT22;40226;50.874;4.394;2023-12-14T08:24:48;8.40;99.90
23597;DHT22;40226;50.874;4.394;2023-12-14T08:27:13;8.40;99.90
23597;DHT22;40226;50.874;4.394;2023-12-14T08:29:39;8.60;99.90
23597;DHT22;40226;50.874;4.394;2023-12-14T08:32:05;8.70;99.90
23597;DHT22;40226;50.874;4.394;2023-12-14T08:34:30;8.80;99.90
23597;DHT22;40226;50.874;4.394;2023-12-14T08:36:56;8.80;99.90
23597;DHT22;40226;50.874;4.394;2023-12-14T08:39:22;9.00;99.90
23597;DHT22;40226;50.874;4.394;2023-12-14T08:41:47;8.90;99.90
23597;DHT22;40226;50.874;4.394;2023-12-14T08:44:14;8.90;99.90
23597;DHT22;40226;50.874;4.394;2023-12-14T08:46:45;8.70;99.90
23597;DHT22;40226;50.874;4.394;2023-12-14T08:49:12;8.70;99.90
23597;DHT22;40226;50.874;4.394;2023-12-14T08:51:39;8.80;99.90
23597;DHT22;40226;50.874;4.394;2023-12-14T08:54:05;8.80;99.90
23597;DHT22;40226;50.874;4.394;2023-12-14T08:56:31;8.90;99.90
23597;DHT22;40226;50.874;4.394;2023-12-14T08:58:56;8.90;99.90
23597;DHT22;40226;50.874;4.394;2023-12-14T09:01:23;9.10;99.90
23597;DHT22;40226;50.874;4.394;2023-12-14T09:03:49;9.10;99.90
23597;DHT22;40226;50.874;4.394;2023-12-14T09:06:16;8.90;99.90
23597;DHT22;40226;50.874;4.394;2023-12-14T09:08:43;8.90;99.90
23597;DHT22;40226;50.874;4.394;2023-12-14T09:11:08;9.00;99.90
23597;DHT22;40226;50.874;4.394;2023-12-14T09:13:34;8.90;99.90
23597;DHT22;40226;50.874;4.394;2023-12-14T09:16:03;9.00;99.90
23597;DHT22;40226;50.874;4.394;2023-12-14T09:18:29;9.20;99.90
23597;DHT22;40226;50.874;4.394;2023-12-14T09:20:59;9.30;99.90
23597;DHT22;40226;50.874;4.394;2023-12-14T09:23:26;9.50;99.90
23597;DHT22;40226;50.874;4.394;2023-12-14T09:25:55;9.50;99.90
23597;DHT22;40226;50.874;4.394;2023-12-14T09:28:22;9.60;99.90
23597;DHT22;40226;50.874;4.394;2023-12-14T09:30:48;9.80;99.90
23597;DHT22;40226;50.874;4.394;2023-12-14T09:33:15;9.90;92.80
23597;DHT22;40226;50.874;4.394;2023-12-14T09:35:41;9.70;97.80
23597;DHT22;40226;50.874;4.394;2023-12-14T09:38:08;9.60;99.90
23597;DHT22;40226;50.874;4.394;2023-12-14T09:40:35;9.60;99.90
23597;DHT22;40226;50.874;4.394;2023-12-14T09:43:01;9.70;99.90
23597;DHT22;40226;50.874;4.394;2023-12-14T09:45:31;9.60;99.90
23597;DHT22;40226;50.874;4.394;2023-12-14T09:48:00;9.70;99.90
23597;DHT22;40226;50.874;4.394;2023-12-14T09:50:27;9.60;99.90
23597;DHT22;40226;50.874;4.394;2023-12-14T09:52:53;9.70;99.90
23597;DHT22;40226;50.874;4.394;2023-12-14T09:55:20;9.60;92.70
23597;DHT22;40226;50.874;4.394;2023-12-14T09:57:46;9.60;95.30
23597;DHT22;40226;50.874;4.394;2023-12-14T10:00:13;9.50;86.70
23597;DHT22;40226;50.874;4.394;2023-12-14T10:03:05;9.60;85.90
23597;DHT22;40226;50.874;4.394;2023-12-14T10:05:43;9.50;91.20
23597;DHT22;40226;50.874;4.394;2023-12-14T10:08:08;9.40;97.60
23597;DHT22;40226;50.874;4.394;2023-12-14T10:10:34;9.60;93.90
23597;DHT22;40226;50.874;4.394;2023-12-14T10:13:01;9.80;77.80
23597;DHT22;40226;50.874;4.394;2023-12-14T10:15:29;9.90;72.90
23597;DHT22;40226;50.874;4.394;2023-12-14T10:17:55;9.70;81.40
23597;DHT22;40226;50.874;4.394;2023-12-14T10:20:23;9.40;87.80
23597;DHT22;40226;50.874;4.394;2023-12-14T10:22:50;9.40;86.50
23597;DHT22;40226;50.874;4.394;2023-12-14T10:25:18;9.40;89.00
23597;DHT22;40226;50.874;4.394;2023-12-14T10:27:46;9.30;93.40
23597;DHT22;40226;50.874;4.394;2023-12-14T10:30:13;9.50;95.90
23597;DHT22;40226;50.874;4.394;2023-12-14T10:32:39;9.70;80.50
23597;DHT22;40226;50.874;4.394;2023-12-14T10:35:06;9.80;77.00
23597;DHT22;40226;50.874;4.394;2023-12-14T10:37:32;9.90;37.20
23597;DHT22;40226;50.874;4.394;2023-12-14T10:40:02;9.70;59.60
23597;DHT22;40226;50.874;4.394;2023-12-14T10:42:32;9.50;81.20
23597;DHT22;40226;50.874;4.394;2023-12-14T10:45:00;9.60;88.90
23597;DHT22;40226;50.874;4.394;2023-12-14T10:47:27;9.60;90.80
23597;DHT22;40226;50.874;4.394;2023-12-14T10:49:54;9.70;94.00
23597;DHT22;40226;50.874;4.394;2023-12-14T10:52:22;9.70;91.50
23597;DHT22;40226;50.874;4.394;2023-12-14T10:54:53;9.90;84.50
23597;DHT22;40226;50.874;4.394;2023-12-14T10:57:22;9.80;83.20
23597;DHT22;40226;50.874;4.394;2023-12-14T10:59:49;9.90;92.10
23597;DHT22;40226;50.874;4.394;2023-12-14T11:02:15;10.10;83.40
23597;DHT22;40226;50.874;4.394;2023-12-14T11:04:57;10.10;32.60
23597;DHT22;40226;50.874;4.394;2023-12-14T11:08:03;10.30;49.30
23597;DHT22;40226;50.874;4.394;2023-12-14T11:11:00;10.10;47.80
23597;DHT22;40226;50.874;4.394;2023-12-14T11:13:27;10.20;47.40
23597;DHT22;40226;50.874;4.394;2023-12-14T11:15:56;10.20;32.50
23597;DHT22;40226;50.874;4.394;2023-12-14T11:18:23;10.40;15.40
23597;DHT22;40226;50.874;4.394;2023-12-14T11:20:52;10.10;10.70
23597;DHT22;40226;50.874;4.394;2023-12-14T11:23:35;10.30;16.50
23597;DHT22;40226;50.874;4.394;2023-12-14T11:26:05;10.30;19.50
23597;DHT22;40226;50.874;4.394;2023-12-14T11:28:33;10.10;24.60
23597;DHT22;40226;50.874;4.394;2023-12-14T11:31:00;10.20;10.40
23597;DHT22;40226;50.874;4.394;2023-12-14T11:33:27;10.20;19.10
23597;DHT22;40226;50.874;4.394;2023-12-14T11:35:54;10.30;9.70
23597;DHT22;40226;50.874;4.394;2023-12-14T11:38:20;10.10;1.00
23597;DHT22;40226;50.874;4.394;2023-12-14T11:40:47;9.80;1.00
23597;DHT22;40226;50.874;4.394;2023-12-14T11:43:14;9.70;4.50
23597;DHT22;40226;50.874;4.394;2023-12-14T11:45:41;9.70;18.40
23597;DHT22;40226;50.874;4.394;2023-12-14T11:48:09;9.70;33.10
23597;DHT22;40226;50.874;4.394;2023-12-14T11:50:37;9.80;9.70
23597;DHT22;40226;50.874;4.394;2023-12-14T11:53:03;10.00;99.90
23597;DHT22;40226;50.874;4.394;2023-12-14T11:55:33;9.90;99.90
23597;DHT22;40226;50.874;4.394;2023-12-14T11:57:59;10.00;99.90
23597;DHT22;40226;50.874;4.394;2023-12-14T12:00:27;9.80;99.90
23597;DHT22;40226;50.874;4.394;2023-12-14T12:03:14;9.50;18.30
23597;DHT22;40226;50.874;4.394;2023-12-14T12:05:47;9.40;62.60
23597;DHT22;40226;50.874;4.394;2023-12-14T12:08:15;9.40;79.80
23597;DHT22;40226;50.874;4.394;2023-12-14T12:10:42;9.40;98.20
23597;DHT22;40226;50.874;4.394;2023-12-14T12:13:21;9.40;90.00
23597;DHT22;40226;50.874;4.394;2023-12-14T12:15:47;9.40;99.90
23597;DHT22;40226;50.874;4.394;2023-12-14T12:18:14;9.50;99.90
23597;DHT22;40226;50.874;4.394;2023-12-14T12:20:40;9.50;99.90
23597;DHT22;40226;50.874;4.394;2023-12-14T12:23:06;9.70;99.90
23597;DHT22;40226;50.874;4.394;2023-12-14T12:25:33;9.70;99.90
23597;DHT22;40226;50.874;4.394;2023-12-14T12:28:00;9.90;99.90
23597;DHT22;40226;50.874;4.394;2023-12-14T12:30:26;9.90;99.90
23597;DHT22;40226;50.874;4.394;2023-12-14T12:32:52;9.70;99.90
23597;DHT22;40226;50.874;4.394;2023-12-14T12:35:19;9.50;99.90
23597;DHT22;40226;50.874;4.394;2023-12-14T12:37:45;9.40;99.90
23597;DHT22;40226;50.874;4.394;2023-12-14T12:40:11;9.50;99.90
23597;DHT22;40226;50.874;4.394;2023-12-14T12:42:36;9.30;99.90
23597;DHT22;40226;50.874;4.394;2023-12-14T12:45:03;9.30;99.90
23597;DHT22;40226;50.874;4.394;2023-12-14T12:47:30;9.60;99.90
23597;DHT22;40226;50.874;4.394;2023-12-14T12:49:55;9.50;99.90
23597;DHT22;40226;50.874;4.394;2023-12-14T12:52:21;9.50;99.90
23597;DHT22;40226;50.874;4.394;2023-12-14T12:54:46;9.50;99.90
23597;DHT22;40226;50.874;4.394;2023-12-14T12:57:12;9.40;99.90
23597;DHT22;40226;50.874;4.394;2023-12-14T12:59:38;9.50;99.90
23597;DHT22;40226;50.874;4.394;2023-12-14T13:02:04;9.30;99.90
23597;DHT22;40226;50.874;4.394;2023-12-14T13:04:29;9.50;99.90
23597;DHT22;40226;50.874;4.394;2023-12-14T13:06:56;9.40;99.90
23597;DHT22;40226;50.874;4.394;2023-12-14T13:09:22;9.30;99.90
23597;DHT22;40226;50.874;4.394;2023-12-14T13:11:48;9.20;99.90
23597;DHT22;40226;50.874;4.394;2023-12-14T13:14:14;9.30;99.90
23597;DHT22;40226;50.874;4.394;2023-12-14T13:16:40;9.40;99.90
23597;DHT22;40226;50.874;4.394;2023-12-14T13:19:06;9.30;99.90
23597;DHT22;40226;50.874;4.394;2023-12-14T13:21:33;9.40;99.90
23597;DHT22;40226;50.874;4.394;2023-12-14T13:24:02;9.00;99.90
23597;DHT22;40226;50.874;4.394;2023-12-14T13:26:28;8.80;99.90
23597;DHT22;40226;50.874;4.394;2023-12-14T13:28:54;8.50;99.90
23597;DHT22;40226;50.874;4.394;2023-12-14T13:31:20;8.30;99.90
23597;DHT22;40226;50.874;4.394;2023-12-14T13:33:47;8.30;99.90
23597;DHT22;40226;50.874;4.394;2023-12-14T13:36:13;8.60;99.90
23597;DHT22;40226;50.874;4.394;2023-12-14T13:38:40;8.60;99.90
23597;DHT22;40226;50.874;4.394;2023-12-14T13:41:07;8.70;99.90
23597;DHT22;40226;50.874;4.394;2023-12-14T13:43:32;8.90;99.90
23597;DHT22;40226;50.874;4.394;2023-12-14T13:45:58;9.10;99.90
23597;DHT22;40226;50.874;4.394;2023-12-14T13:48:25;9.10;99.90
23597;DHT22;40226;50.874;4.394;2023-12-14T13:50:51;8.80;99.90
23597;DHT22;40226;50.874;4.394;2023-12-14T13:53:17;8.70;99.90
23597;DHT22;40226;50.874;4.394;2023-12-14T13:55:43;8.80;99.90
23597;DHT22;40226;50.874;4.394;2023-12-14T13:58:08;9.00;99.90
23597;DHT22;40226;50.874;4.394;2023-12-14T14:00:34;9.20;99.90
23597;DHT22;40226;50.874;4.394;2023-12-14T14:03:00;9.40;99.90
23597;DHT22;40226;50.874;4.394;2023-12-14T14:05:26;9.50;99.90
23597;DHT22;40226;50.874;4.394;2023-12-14T14:07:52;9.40;99.90
23597;DHT22;40226;50.874;4.394;2023-12-14T14:10:19;9.30;99.90
23597;DHT22;40226;50.874;4.394;2023-12-14T14:12:45;9.30;99.90
23597;DHT22;40226;50.874;4.394;2023-12-14T14:15:11;9.30;99.90
23597;DHT22;40226;50.874;4.394;2023-12-14T14:17:37;9.20;99.90
23597;DHT22;40226;50.874;4.394;2023-12-14T14:20:03;9.20;99.90
23597;DHT22;40226;50.874;4.394;2023-12-14T14:22:30;9.10;99.90
23597;DHT22;40226;50.874;4.394;2023-12-14T14:24:56;9.20;99.90
23597;DHT22;40226;50.874;4.394;2023-12-14T14:27:22;8.90;99.90
23597;DHT22;40226;50.874;4.394;2023-12-14T14:29:47;9.10;99.90
23597;DHT22;40226;50.874;4.394;2023-12-14T14:32:13;9.00;99.90
23597;DHT22;40226;50.874;4.394;2023-12-14T14:34:39;9.10;99.90
23597;DHT22;40226;50.874;4.394;2023-12-14T14:37:04;9.20;99.90
23597;DHT22;40226;50.874;4.394;2023-12-14T14:39:31;9.20;99.90
23597;DHT22;40226;50.874;4.394;2023-12-14T14:41:56;9.00;99.90
23597;DHT22;40226;50.874;4.394;2023-12-14T14:44:22;9.00;99.90
23597;DHT22;40226;50.874;4.394;2023-12-14T14:46:47;9.40;99.90
23597;DHT22;40226;50.874;4.394;2023-12-14T14:49:13;9.40;99.90
23597;DHT22;40226;50.874;4.394;2023-12-14T14:51:39;9.50;99.90
23597;DHT22;40226;50.874;4.394;2023-12-14T14:54:04;9.40;99.90
23597;DHT22;40226;50.874;4.394;2023-12-14T14:56:30;9.40;99.90
23597;DHT22;40226;50.874;4.394;2023-12-14T14:58:55;9.30;99.90
23597;DHT22;40226;50.874;4.394;2023-12-14T15:01:21;9.50;99.90
23597;DHT22;40226;50.874;4.394;2023-12-14T15:03:47;9.40;99.90
23597;DHT22;40226;50.874;4.394;2023-12-14T15:06:12;9.30;99.90
23597;DHT22;40226;50.874;4.394;2023-12-14T15:08:38;9.20;99.90
23597;DHT22;40226;50.874;4.394;2023-12-14T15:11:03;9.10;99.90
23597;DHT22;40226;50.874;4.394;2023-12-14T15:13:31;9.50;99.90
23597;DHT22;40226;50.874;4.394;2023-12-14T15:15:57;9.30;99.90
23597;DHT22;40226;50.874;4.394;2023-12-14T15:18:23;9.10;99.90
23597;DHT22;40226;50.874;4.394;2023-12-14T15:20:48;9.20;99.90
23597;DHT22;40226;50.874;4.394;2023-12-14T15:23:14;9.10;99.90
23597;DHT22;40226;50.874;4.394;2023-12-14T15:25:40;8.90;99.90
23597;DHT22;40226;50.874;4.394;2023-12-14T15:28:06;8.90;99.90
23597;DHT22;40226;50.874;4.394;2023-12-14T15:30:31;9.10;99.90
23597;DHT22;40226;50.874;4.394;2023-12-14T15:32:57;9.20;99.90
23597;DHT22;40226;50.874;4.394;2023-12-14T15:35:23;9.20;99.90
23597;DHT22;40226;50.874;4.394;2023-12-14T15:37:49;9.40;99.90